sensor_id;sensor_type;location;lat;lon;timestamp;temperature;humidity
42905;DHT22;28550;51.228;4.528;2022-07-11T00:01:15;16.80;99.90
42905;DHT22;28550;51.228;4.528;2022-07-11T00:03:41;16.70;99.90
42905;DHT22;28550;51.228;4.528;2022-07-11T00:06:06;16.70;99.90
42905;DHT22;28550;51.228;4.528;2022-07-11T00:08:32;16.70;99.90
42905;DHT22;28550;51.228;4.528;2022-07-11T00:10:57;16.70;99.90
42905;DHT22;28550;51.228;4.528;2022-07-11T00:13:23;16.70;99.90
42905;DHT22;28550;51.228;4.528;2022-07-11T00:15:49;16.70;99.90
42905;DHT22;28550;51.228;4.528;2022-07-11T00:18:14;16.70;99.90
42905;DHT22;28550;51.228;4.528;2022-07-11T00:20:40;16.70;99.90
42905;DHT22;28550;51.228;4.528;2022-07-11T00:23:05;16.70;99.90
42905;DHT22;28550;51.228;4.528;2022-07-11T00:25:31;16.60;99.90
42905;DHT22;28550;51.228;4.528;2022-07-11T00:27:56;16.60;99.90
42905;DHT22;28550;51.228;4.528;2022-07-11T00:30:22;16.50;99.90
42905;DHT22;28550;51.228;4.528;2022-07-11T00:32:48;16.40;99.90
42905;DHT22;28550;51.228;4.528;2022-07-11T00:35:13;16.50;99.90
42905;DHT22;28550;51.228;4.528;2022-07-11T00:37:39;16.50;99.90
42905;DHT22;28550;51.228;4.528;2022-07-11T00:40:05;16.50;99.90
42905;DHT22;28550;51.228;4.528;2022-07-11T00:42:30;16.50;99.90
42905;DHT22;28550;51.228;4.528;2022-07-11T00:44:56;16.50;99.90
42905;DHT22;28550;51.228;4.528;2022-07-11T00:47:22;16.50;99.90
42905;DHT22;28550;51.228;4.528;2022-07-11T00:49:47;16.50;99.90
42905;DHT22;28550;51.228;4.528;2022-07-11T00:52:13;16.50;99.90
42905;DHT22;28550;51.228;4.528;2022-07-11T00:54:39;16.40;99.90
42905;DHT22;28550;51.228;4.528;2022-07-11T00:57:04;16.40;99.90
42905;DHT22;28550;51.228;4.528;2022-07-11T00:59:30;16.30;99.90
42905;DHT22;28550;51.228;4.528;2022-07-11T01:01:56;16.30;99.90
42905;DHT22;28550;51.228;4.528;2022-07-11T01:04:21;16.20;99.90
42905;DHT22;28550;51.228;4.528;2022-07-11T01:06:47;16.20;99.90
42905;DHT22;28550;51.228;4.528;2022-07-11T01:09:12;16.20;99.90
42905;DHT22;28550;51.228;4.528;2022-07-11T01:11:38;16.20;99.90
42905;DHT22;28550;51.228;4.528;2022-07-11T01:14:04;16.20;99.90
42905;DHT22;28550;51.228;4.528;2022-07-11T01:16:29;16.30;99.90
42905;DHT22;28550;51.228;4.528;2022-07-11T01:18:56;16.30;99.90
42905;DHT22;28550;51.228;4.528;2022-07-11T01:21:26;16.30;99.90
42905;DHT22;28550;51.228;4.528;2022-07-11T01:23:54;16.30;99.90
42905;DHT22;28550;51.228;4.528;2022-07-11T01:26:21;16.20;99.90
42905;DHT22;28550;51.228;4.528;2022-07-11T01:28:46;16.20;99.90
42905;DHT22;28550;51.228;4.528;2022-07-11T01:31:12;16.20;99.90
42905;DHT22;28550;51.228;4.528;2022-07-11T01:33:38;16.10;99.90
42905;DHT22;28550;51.228;4.528;2022-07-11T01:36:04;16.10;99.90
42905;DHT22;28550;51.228;4.528;2022-07-11T01:38:30;16.10;99.90
42905;DHT22;28550;51.228;4.528;2022-07-11T01:40:55;16.10;99.90
42905;DHT22;28550;51.228;4.528;2022-07-11T01:43:21;16.10;99.90
42905;DHT22;28550;51.228;4.528;2022-07-11T01:45:49;16.10;99.90
42905;DHT22;28550;51.228;4.528;2022-07-11T01:48:15;16.00;99.90
42905;DHT22;28550;51.228;4.528;2022-07-11T01:50:40;16.00;99.90
42905;DHT22;28550;51.228;4.528;2022-07-11T01:53:06;16.10;99.90
42905;DHT22;28550;51.228;4.528;2022-07-11T01:55:32;16.00;99.90
42905;DHT22;28550;51.228;4.528;2022-07-11T01:57:57;16.00;99.90
42905;DHT22;28550;51.228;4.528;2022-07-11T02:00:23;16.00;99.90
42905;DHT22;28550;51.228;4.528;2022-07-11T02:02:49;16.10;99.90
42905;DHT22;28550;51.228;4.528;2022-07-11T02:05:14;16.10;99.90
42905;DHT22;28550;51.228;4.528;2022-07-11T02:07:41;16.10;99.90
42905;DHT22;28550;51.228;4.528;2022-07-11T02:10:25;16.00;99.90
42905;DHT22;28550;51.228;4.528;2022-07-11T02:12:57;16.00;99.90
42905;DHT22;28550;51.228;4.528;2022-07-11T02:15:26;16.00;99.90
42905;DHT22;28550;51.228;4.528;2022-07-11T02:17:51;16.00;99.90
42905;DHT22;28550;51.228;4.528;2022-07-11T02:20:20;16.00;99.90
42905;DHT22;28550;51.228;4.528;2022-07-11T02:22:46;16.00;99.90
42905;DHT22;28550;51.228;4.528;2022-07-11T02:25:13;16.00;99.90
42905;DHT22;28550;51.228;4.528;2022-07-11T02:27:40;15.90;99.90
42905;DHT22;28550;51.228;4.528;2022-07-11T02:30:06;15.90;99.90
42905;DHT22;28550;51.228;4.528;2022-07-11T02:32:31;16.00;99.90
42905;DHT22;28550;51.228;4.528;2022-07-11T02:34:57;16.00;99.90
42905;DHT22;28550;51.228;4.528;2022-07-11T02:37:22;15.90;99.90
42905;DHT22;28550;51.228;4.528;2022-07-11T02:39:48;15.90;99.90
42905;DHT22;28550;51.228;4.528;2022-07-11T02:42:13;15.80;99.90
42905;DHT22;28550;51.228;4.528;2022-07-11T02:44:39;15.70;99.90
42905;DHT22;28550;51.228;4.528;2022-07-11T02:47:05;15.60;99.90
42905;DHT22;28550;51.228;4.528;2022-07-11T02:49:30;15.60;99.90
42905;DHT22;28550;51.228;4.528;2022-07-11T02:57:36;15.70;99.90
42905;DHT22;28550;51.228;4.528;2022-07-11T03:00:02;15.70;99.90
42905;DHT22;28550;51.228;4.528;2022-07-11T03:05:05;15.70;99.90
42905;DHT22;28550;51.228;4.528;2022-07-11T03:52:29;15.50;99.90
42905;DHT22;28550;51.228;4.528;2022-07-11T03:58:00;15.60;99.90
42905;DHT22;28550;51.228;4.528;2022-07-11T04:00:26;15.50;99.90
42905;DHT22;28550;51.228;4.528;2022-07-11T04:02:52;15.60;99.90
42905;DHT22;28550;51.228;4.528;2022-07-11T04:05:27;15.60;99.90
42905;DHT22;28550;51.228;4.528;2022-07-11T04:07:58;15.60;99.90
42905;DHT22;28550;51.228;4.528;2022-07-11T04:10:24;15.60;99.90
42905;DHT22;28550;51.228;4.528;2022-07-11T04:12:52;15.60;99.90
42905;DHT22;28550;51.228;4.528;2022-07-11T04:15:18;15.60;99.90
42905;DHT22;28550;51.228;4.528;2022-07-11T04:17:46;15.60;99.90
42905;DHT22;28550;51.228;4.528;2022-07-11T04:20:12;15.60;99.90
42905;DHT22;28550;51.228;4.528;2022-07-11T04:28:27;15.50;99.90
42905;DHT22;28550;51.228;4.528;2022-07-11T04:30:56;15.60;99.90
42905;DHT22;28550;51.228;4.528;2022-07-11T04:33:21;15.70;99.90
42905;DHT22;28550;51.228;4.528;2022-07-11T04:35:47;15.70;99.90
42905;DHT22;28550;51.228;4.528;2022-07-11T04:38:12;15.80;99.90
42905;DHT22;28550;51.228;4.528;2022-07-11T04:40:38;15.90;99.90
42905;DHT22;28550;51.228;4.528;2022-07-11T04:43:04;16.00;99.90
42905;DHT22;28550;51.228;4.528;2022-07-11T04:45:29;15.90;99.90
42905;DHT22;28550;51.228;4.528;2022-07-11T04:47:55;15.90;99.90
42905;DHT22;28550;51.228;4.528;2022-07-11T04:50:21;15.90;99.90
42905;DHT22;28550;51.228;4.528;2022-07-11T04:52:46;16.00;99.90
42905;DHT22;28550;51.228;4.528;2022-07-11T04:55:12;16.10;99.90
42905;DHT22;28550;51.228;4.528;2022-07-11T04:57:37;16.20;99.90
42905;DHT22;28550;51.228;4.528;2022-07-11T05:00:13;16.20;99.90
42905;DHT22;28550;51.228;4.528;2022-07-11T05:02:39;16.30;99.90
42905;DHT22;28550;51.228;4.528;2022-07-11T05:05:04;16.30;99.90
42905;DHT22;28550;51.228;4.528;2022-07-11T05:07:36;16.30;99.90
42905;DHT22;28550;51.228;4.528;2022-07-11T05:10:06;16.30;99.90
42905;DHT22;28550;51.228;4.528;2022-07-11T05:12:31;16.40;99.90
42905;DHT22;28550;51.228;4.528;2022-07-11T05:14:57;16.60;99.90
42905;DHT22;28550;51.228;4.528;2022-07-11T05:17:36;16.60;99.90
42905;DHT22;28550;51.228;4.528;2022-07-11T05:20:02;16.80;99.90
42905;DHT22;28550;51.228;4.528;2022-07-11T05:22:27;16.90;99.90
42905;DHT22;28550;51.228;4.528;2022-07-11T05:27:28;17.10;99.90
42905;DHT22;28550;51.228;4.528;2022-07-11T05:29:54;17.10;99.90
42905;DHT22;28550;51.228;4.528;2022-07-11T05:32:20;17.10;99.90
42905;DHT22;28550;51.228;4.528;2022-07-11T05:34:45;17.10;99.90
42905;DHT22;28550;51.228;4.528;2022-07-11T05:37:11;17.30;99.90
42905;DHT22;28550;51.228;4.528;2022-07-11T05:42:21;17.60;99.90
42905;DHT22;28550;51.228;4.528;2022-07-11T05:44:49;17.70;99.90
42905;DHT22;28550;51.228;4.528;2022-07-11T05:47:15;18.00;99.90
42905;DHT22;28550;51.228;4.528;2022-07-11T05:49:41;18.10;99.90
42905;DHT22;28550;51.228;4.528;2022-07-11T05:52:07;18.20;99.90
42905;DHT22;28550;51.228;4.528;2022-07-11T05:54:32;18.30;99.90
42905;DHT22;28550;51.228;4.528;2022-07-11T05:56:58;18.40;99.90
42905;DHT22;28550;51.228;4.528;2022-07-11T05:59:23;18.50;99.90
42905;DHT22;28550;51.228;4.528;2022-07-11T06:01:49;18.80;99.90
42905;DHT22;28550;51.228;4.528;2022-07-11T06:04:14;18.90;99.90
42905;DHT22;28550;51.228;4.528;2022-07-11T06:06:43;19.10;99.90
42905;DHT22;28550;51.228;4.528;2022-07-11T06:09:12;19.30;99.90
42905;DHT22;28550;51.228;4.528;2022-07-11T06:11:37;19.30;99.90
42905;DHT22;28550;51.228;4.528;2022-07-11T06:14:03;19.30;99.90
42905;DHT22;28550;51.228;4.528;2022-07-11T06:16:28;19.30;99.90
42905;DHT22;28550;51.228;4.528;2022-07-11T06:18:54;19.30;99.90
42905;DHT22;28550;51.228;4.528;2022-07-11T06:21:20;19.50;99.90
42905;DHT22;28550;51.228;4.528;2022-07-11T06:23:46;19.50;99.90
42905;DHT22;28550;51.228;4.528;2022-07-11T06:26:11;19.60;99.90
42905;DHT22;28550;51.228;4.528;2022-07-11T06:28:37;19.70;99.90
42905;DHT22;28550;51.228;4.528;2022-07-11T06:31:04;19.90;99.90
42905;DHT22;28550;51.228;4.528;2022-07-11T06:33:33;19.90;99.90
42905;DHT22;28550;51.228;4.528;2022-07-11T06:36:00;19.90;99.90
42905;DHT22;28550;51.228;4.528;2022-07-11T06:38:43;19.80;99.90
42905;DHT22;28550;51.228;4.528;2022-07-11T06:41:08;20.00;99.90
42905;DHT22;28550;51.228;4.528;2022-07-11T06:43:34;19.80;99.90
42905;DHT22;28550;51.228;4.528;2022-07-11T06:46:00;19.80;99.90
42905;DHT22;28550;51.228;4.528;2022-07-11T06:48:26;20.10;99.90
42905;DHT22;28550;51.228;4.528;2022-07-11T06:50:52;20.30;99.90
42905;DHT22;28550;51.228;4.528;2022-07-11T06:53:17;20.50;99.90
42905;DHT22;28550;51.228;4.528;2022-07-11T06:55:46;20.10;99.90
42905;DHT22;28550;51.228;4.528;2022-07-11T06:58:16;20.20;99.90
42905;DHT22;28550;51.228;4.528;2022-07-11T07:01:00;20.20;99.90
42905;DHT22;28550;51.228;4.528;2022-07-11T07:03:27;20.30;99.90
42905;DHT22;28550;51.228;4.528;2022-07-11T07:06:16;20.50;99.90
42905;DHT22;28550;51.228;4.528;2022-07-11T07:08:41;20.80;99.90
42905;DHT22;28550;51.228;4.528;2022-07-11T07:11:07;20.70;99.90
42905;DHT22;28550;51.228;4.528;2022-07-11T07:13:39;20.60;99.90
42905;DHT22;28550;51.228;4.528;2022-07-11T07:16:15;20.80;99.90
42905;DHT22;28550;51.228;4.528;2022-07-11T07:18:41;21.00;99.90
42905;DHT22;28550;51.228;4.528;2022-07-11T07:21:16;21.10;99.90
42905;DHT22;28550;51.228;4.528;2022-07-11T07:23:42;21.30;99.90
42905;DHT22;28550;51.228;4.528;2022-07-11T07:26:08;21.00;99.90
42905;DHT22;28550;51.228;4.528;2022-07-11T07:28:33;20.70;99.90
42905;DHT22;28550;51.228;4.528;2022-07-11T07:31:00;21.00;99.90
42905;DHT22;28550;51.228;4.528;2022-07-11T07:33:25;21.20;99.90
42905;DHT22;28550;51.228;4.528;2022-07-11T07:35:53;21.00;99.90
42905;DHT22;28550;51.228;4.528;2022-07-11T07:41:20;21.10;99.90
42905;DHT22;28550;51.228;4.528;2022-07-11T07:43:53;21.30;99.90
42905;DHT22;28550;51.228;4.528;2022-07-11T07:46:20;21.70;99.90
42905;DHT22;28550;51.228;4.528;2022-07-11T07:48:52;22.00;99.90
42905;DHT22;28550;51.228;4.528;2022-07-11T07:51:35;21.70;99.90
42905;DHT22;28550;51.228;4.528;2022-07-11T07:54:01;21.40;99.90
42905;DHT22;28550;51.228;4.528;2022-07-11T07:56:26;21.20;99.90
42905;DHT22;28550;51.228;4.528;2022-07-11T07:59:01;21.40;99.90
42905;DHT22;28550;51.228;4.528;2022-07-11T08:01:27;21.40;99.90
42905;DHT22;28550;51.228;4.528;2022-07-11T08:04:02;21.50;99.90
42905;DHT22;28550;51.228;4.528;2022-07-11T08:06:28;21.40;99.90
42905;DHT22;28550;51.228;4.528;2022-07-11T08:08:55;21.40;99.90
42905;DHT22;28550;51.228;4.528;2022-07-11T08:11:20;21.70;99.90
42905;DHT22;28550;51.228;4.528;2022-07-11T08:13:49;22.00;99.90
42905;DHT22;28550;51.228;4.528;2022-07-11T08:16:14;22.10;99.90
42905;DHT22;28550;51.228;4.528;2022-07-11T08:18:41;22.00;99.90
42905;DHT22;28550;51.228;4.528;2022-07-11T08:21:09;22.40;99.90
42905;DHT22;28550;51.228;4.528;2022-07-11T08:23:37;22.60;99.90
42905;DHT22;28550;51.228;4.528;2022-07-11T08:26:03;22.70;99.90
42905;DHT22;28550;51.228;4.528;2022-07-11T08:28:33;22.70;99.90
42905;DHT22;28550;51.228;4.528;2022-07-11T08:31:04;23.10;99.90
42905;DHT22;28550;51.228;4.528;2022-07-11T08:33:33;23.60;99.90
42905;DHT22;28550;51.228;4.528;2022-07-11T08:36:01;24.00;99.90
42905;DHT22;28550;51.228;4.528;2022-07-11T08:38:33;24.40;99.90
42905;DHT22;28550;51.228;4.528;2022-07-11T08:41:26;24.30;99.90
42905;DHT22;28550;51.228;4.528;2022-07-11T08:43:53;24.60;99.90
42905;DHT22;28550;51.228;4.528;2022-07-11T08:46:20;24.10;99.90
42905;DHT22;28550;51.228;4.528;2022-07-11T08:49:13;24.20;99.90
42905;DHT22;28550;51.228;4.528;2022-07-11T08:51:57;24.50;99.90
42905;DHT22;28550;51.228;4.528;2022-07-11T08:57:01;24.30;99.90
42905;DHT22;28550;51.228;4.528;2022-07-11T08:59:33;24.40;99.90
42905;DHT22;28550;51.228;4.528;2022-07-11T09:02:06;24.90;99.90
42905;DHT22;28550;51.228;4.528;2022-07-11T09:04:49;24.60;99.90
42905;DHT22;28550;51.228;4.528;2022-07-11T09:07:16;24.50;99.90
42905;DHT22;28550;51.228;4.528;2022-07-11T09:09:44;25.10;99.90
42905;DHT22;28550;51.228;4.528;2022-07-11T09:12:12;24.80;99.90
42905;DHT22;28550;51.228;4.528;2022-07-11T09:14:37;24.40;99.90
42905;DHT22;28550;51.228;4.528;2022-07-11T09:17:04;24.10;99.90
42905;DHT22;28550;51.228;4.528;2022-07-11T09:19:32;24.10;99.90
42905;DHT22;28550;51.228;4.528;2022-07-11T09:22:05;24.40;99.90
42905;DHT22;28550;51.228;4.528;2022-07-11T09:24:55;25.00;99.90
42905;DHT22;28550;51.228;4.528;2022-07-11T09:27:43;25.50;99.90
42905;DHT22;28550;51.228;4.528;2022-07-11T09:35:22;26.00;99.90
42905;DHT22;28550;51.228;4.528;2022-07-11T09:37:48;26.20;99.90
42905;DHT22;28550;51.228;4.528;2022-07-11T09:40:16;26.60;99.90
42905;DHT22;28550;51.228;4.528;2022-07-11T09:42:49;26.40;99.90
42905;DHT22;28550;51.228;4.528;2022-07-11T09:45:31;26.30;99.90
42905;DHT22;28550;51.228;4.528;2022-07-11T09:48:13;27.10;99.90
42905;DHT22;28550;51.228;4.528;2022-07-11T09:50:40;28.00;98.20
42905;DHT22;28550;51.228;4.528;2022-07-11T09:53:20;27.80;97.30
42905;DHT22;28550;51.228;4.528;2022-07-11T09:55:45;28.10;95.00
42905;DHT22;28550;51.228;4.528;2022-07-11T09:58:18;28.20;95.40
42905;DHT22;28550;51.228;4.528;2022-07-11T10:00:48;27.40;95.60
42905;DHT22;28550;51.228;4.528;2022-07-11T10:03:13;27.50;97.40
42905;DHT22;28550;51.228;4.528;2022-07-11T10:05:39;27.60;97.00
42905;DHT22;28550;51.228;4.528;2022-07-11T10:10:41;27.40;97.60
42905;DHT22;28550;51.228;4.528;2022-07-11T10:13:08;27.40;96.80
42905;DHT22;28550;51.228;4.528;2022-07-11T10:15:34;27.50;97.20
42905;DHT22;28550;51.228;4.528;2022-07-11T10:26:06;28.90;92.60
42905;DHT22;28550;51.228;4.528;2022-07-11T10:28:38;28.90;92.30
42905;DHT22;28550;51.228;4.528;2022-07-11T10:31:23;29.00;93.60
42905;DHT22;28550;51.228;4.528;2022-07-11T10:34:02;30.30;92.10
42905;DHT22;28550;51.228;4.528;2022-07-11T10:36:28;31.90;83.40
42905;DHT22;28550;51.228;4.528;2022-07-11T10:41:57;33.70;69.00
42905;DHT22;28550;51.228;4.528;2022-07-11T10:44:28;34.10;61.70
42905;DHT22;28550;51.228;4.528;2022-07-11T10:50:08;33.80;62.40
42905;DHT22;28550;51.228;4.528;2022-07-11T10:52:41;34.60;57.20
42905;DHT22;28550;51.228;4.528;2022-07-11T10:56:14;35.80;54.90
42905;DHT22;28550;51.228;4.528;2022-07-11T11:00:32;35.80;51.30
42905;DHT22;28550;51.228;4.528;2022-07-11T11:03:05;34.80;52.90
42905;DHT22;28550;51.228;4.528;2022-07-11T11:05:44;34.40;53.60
42905;DHT22;28550;51.228;4.528;2022-07-11T11:20:06;37.10;49.50
42905;DHT22;28550;51.228;4.528;2022-07-11T11:25:09;37.30;46.40
42905;DHT22;28550;51.228;4.528;2022-07-11T11:28:02;37.20;45.80
42905;DHT22;28550;51.228;4.528;2022-07-11T11:30:29;38.00;46.10
42905;DHT22;28550;51.228;4.528;2022-07-11T11:32:57;37.10;45.90
42905;DHT22;28550;51.228;4.528;2022-07-11T11:35:23;37.40;46.10
42905;DHT22;28550;51.228;4.528;2022-07-11T11:37:50;38.20;45.20
42905;DHT22;28550;51.228;4.528;2022-07-11T11:40:17;38.50;44.20
42905;DHT22;28550;51.228;4.528;2022-07-11T11:42:52;38.80;42.60
42905;DHT22;28550;51.228;4.528;2022-07-11T11:45:18;37.80;43.10
42905;DHT22;28550;51.228;4.528;2022-07-11T11:47:50;35.50;47.20
42905;DHT22;28550;51.228;4.528;2022-07-11T11:50:17;34.70;48.20
42905;DHT22;28550;51.228;4.528;2022-07-11T11:52:44;35.80;48.90
42905;DHT22;28550;51.228;4.528;2022-07-11T11:55:18;35.70;47.60
42905;DHT22;28550;51.228;4.528;2022-07-11T12:00:21;35.90;46.90
42905;DHT22;28550;51.228;4.528;2022-07-11T12:03:03;37.00;47.00
42905;DHT22;28550;51.228;4.528;2022-07-11T12:05:29;35.00;47.60
42905;DHT22;28550;51.228;4.528;2022-07-11T12:07:56;36.60;45.70
42905;DHT22;28550;51.228;4.528;2022-07-11T12:10:28;36.40;46.50
42905;DHT22;28550;51.228;4.528;2022-07-11T12:13:03;35.70;46.80
42905;DHT22;28550;51.228;4.528;2022-07-11T12:15:32;36.80;47.30
42905;DHT22;28550;51.228;4.528;2022-07-11T12:20:55;40.20;41.40
42905;DHT22;28550;51.228;4.528;2022-07-11T12:23:22;39.00;40.80
42905;DHT22;28550;51.228;4.528;2022-07-11T12:25:58;37.60;42.00
42905;DHT22;28550;51.228;4.528;2022-07-11T12:28:36;35.90;43.50
42905;DHT22;28550;51.228;4.528;2022-07-11T12:31:24;34.70;45.90
42905;DHT22;28550;51.228;4.528;2022-07-11T12:33:52;34.60;47.40
42905;DHT22;28550;51.228;4.528;2022-07-11T12:36:18;34.50;47.90
42905;DHT22;28550;51.228;4.528;2022-07-11T12:38:57;33.30;49.90
42905;DHT22;28550;51.228;4.528;2022-07-11T12:41:24;32.50;51.10
42905;DHT22;28550;51.228;4.528;2022-07-11T12:43:51;33.20;50.70
42905;DHT22;28550;51.228;4.528;2022-07-11T12:46:37;34.10;48.70
42905;DHT22;28550;51.228;4.528;2022-07-11T12:49:03;34.40;48.60
42905;DHT22;28550;51.228;4.528;2022-07-11T12:54:21;36.80;44.30
42905;DHT22;28550;51.228;4.528;2022-07-11T12:56:54;38.30;43.70
42905;DHT22;28550;51.228;4.528;2022-07-11T12:59:22;38.90;42.60
42905;DHT22;28550;51.228;4.528;2022-07-11T13:04:38;37.30;41.30
42905;DHT22;28550;51.228;4.528;2022-07-11T13:10:04;37.60;42.70
42905;DHT22;28550;51.228;4.528;2022-07-11T13:12:30;38.00;41.60
42905;DHT22;28550;51.228;4.528;2022-07-11T13:14:57;38.60;42.00
42905;DHT22;28550;51.228;4.528;2022-07-11T13:17:44;39.00;41.00
42905;DHT22;28550;51.228;4.528;2022-07-11T13:20:10;36.80;42.30
42905;DHT22;28550;51.228;4.528;2022-07-11T13:22:38;35.30;45.30
42905;DHT22;28550;51.228;4.528;2022-07-11T13:25:05;34.30;46.20
42905;DHT22;28550;51.228;4.528;2022-07-11T13:27:33;33.20;48.50
42905;DHT22;28550;51.228;4.528;2022-07-11T13:29:59;34.10;48.90
42905;DHT22;28550;51.228;4.528;2022-07-11T13:32:25;35.70;47.10
42905;DHT22;28550;51.228;4.528;2022-07-11T13:34:53;37.10;44.30
42905;DHT22;28550;51.228;4.528;2022-07-11T13:37:19;37.50;42.50
42905;DHT22;28550;51.228;4.528;2022-07-11T13:39:45;38.50;41.00
42905;DHT22;28550;51.228;4.528;2022-07-11T13:42:10;39.00;40.30
42905;DHT22;28550;51.228;4.528;2022-07-11T13:44:36;39.80;39.00
42905;DHT22;28550;51.228;4.528;2022-07-11T13:47:05;39.80;38.60
42905;DHT22;28550;51.228;4.528;2022-07-11T13:49:31;40.30;37.40
42905;DHT22;28550;51.228;4.528;2022-07-11T13:51:57;39.80;37.60
42905;DHT22;28550;51.228;4.528;2022-07-11T13:54:22;39.20;37.70
42905;DHT22;28550;51.228;4.528;2022-07-11T13:56:48;39.60;37.10
42905;DHT22;28550;51.228;4.528;2022-07-11T13:59:13;40.30;37.90
42905;DHT22;28550;51.228;4.528;2022-07-11T14:01:39;39.60;37.90
42905;DHT22;28550;51.228;4.528;2022-07-11T14:04:07;37.90;39.20
42905;DHT22;28550;51.228;4.528;2022-07-11T14:06:33;36.60;40.20
42905;DHT22;28550;51.228;4.528;2022-07-11T14:09:01;36.20;41.60
42905;DHT22;28550;51.228;4.528;2022-07-11T14:11:28;35.80;41.00
42905;DHT22;28550;51.228;4.528;2022-07-11T14:13:53;34.40;43.10
42905;DHT22;28550;51.228;4.528;2022-07-11T14:16:19;35.50;42.40
42905;DHT22;28550;51.228;4.528;2022-07-11T14:18:48;37.00;39.50
42905;DHT22;28550;51.228;4.528;2022-07-11T14:21:17;36.20;39.20
42905;DHT22;28550;51.228;4.528;2022-07-11T14:23:45;37.30;38.90
42905;DHT22;28550;51.228;4.528;2022-07-11T14:26:12;38.70;38.10
42905;DHT22;28550;51.228;4.528;2022-07-11T14:28:38;39.50;37.50
42905;DHT22;28550;51.228;4.528;2022-07-11T14:31:04;39.90;37.30
42905;DHT22;28550;51.228;4.528;2022-07-11T14:33:30;40.40;37.30
42905;DHT22;28550;51.228;4.528;2022-07-11T14:35:57;40.40;35.50
42905;DHT22;28550;51.228;4.528;2022-07-11T14:38:23;40.90;36.20
42905;DHT22;28550;51.228;4.528;2022-07-11T14:40:51;40.60;36.20
42905;DHT22;28550;51.228;4.528;2022-07-11T14:43:19;40.20;36.20
42905;DHT22;28550;51.228;4.528;2022-07-11T14:45:48;39.90;36.50
42905;DHT22;28550;51.228;4.528;2022-07-11T14:48:15;39.80;35.40
42905;DHT22;28550;51.228;4.528;2022-07-11T14:50:40;39.80;34.80
42905;DHT22;28550;51.228;4.528;2022-07-11T14:53:06;40.20;35.20
42905;DHT22;28550;51.228;4.528;2022-07-11T14:55:31;40.30;35.40
42905;DHT22;28550;51.228;4.528;2022-07-11T14:57:58;39.50;35.30
42905;DHT22;28550;51.228;4.528;2022-07-11T15:00:25;39.30;36.50
42905;DHT22;28550;51.228;4.528;2022-07-11T15:02:54;38.70;36.40
42905;DHT22;28550;51.228;4.528;2022-07-11T15:05:38;37.70;38.90
42905;DHT22;28550;51.228;4.528;2022-07-11T15:10:54;37.60;38.40
42905;DHT22;28550;51.228;4.528;2022-07-11T15:13:38;37.80;38.20
42905;DHT22;28550;51.228;4.528;2022-07-11T15:16:10;36.70;39.00
42905;DHT22;28550;51.228;4.528;2022-07-11T15:18:47;37.10;39.20
42905;DHT22;28550;51.228;4.528;2022-07-11T15:21:14;37.80;38.40
42905;DHT22;28550;51.228;4.528;2022-07-11T15:23:40;38.10;37.50
42905;DHT22;28550;51.228;4.528;2022-07-11T15:26:07;38.20;37.70
42905;DHT22;28550;51.228;4.528;2022-07-11T15:28:32;38.20;37.00
42905;DHT22;28550;51.228;4.528;2022-07-11T15:30:59;37.10;38.30
42905;DHT22;28550;51.228;4.528;2022-07-11T15:33:25;36.50;39.20
42905;DHT22;28550;51.228;4.528;2022-07-11T15:35:50;36.80;39.70
42905;DHT22;28550;51.228;4.528;2022-07-11T15:38:20;36.50;39.70
42905;DHT22;28550;51.228;4.528;2022-07-11T15:40:51;36.50;40.00
42905;DHT22;28550;51.228;4.528;2022-07-11T15:43:18;36.90;38.50
42905;DHT22;28550;51.228;4.528;2022-07-11T15:45:47;36.50;38.50
42905;DHT22;28550;51.228;4.528;2022-07-11T15:48:15;36.00;39.50
42905;DHT22;28550;51.228;4.528;2022-07-11T15:50:43;36.00;40.00
42905;DHT22;28550;51.228;4.528;2022-07-11T15:53:16;36.00;40.10
42905;DHT22;28550;51.228;4.528;2022-07-11T15:58:26;36.10;40.10
42905;DHT22;28550;51.228;4.528;2022-07-11T16:00:59;35.10;40.70
42905;DHT22;28550;51.228;4.528;2022-07-11T16:03:45;35.20;40.60
42905;DHT22;28550;51.228;4.528;2022-07-11T16:06:12;35.50;40.40
42905;DHT22;28550;51.228;4.528;2022-07-11T16:08:45;35.60;39.60
42905;DHT22;28550;51.228;4.528;2022-07-11T16:11:24;35.80;39.10
42905;DHT22;28550;51.228;4.528;2022-07-11T16:16:55;35.30;39.70
42905;DHT22;28550;51.228;4.528;2022-07-11T16:19:25;35.60;39.60
42905;DHT22;28550;51.228;4.528;2022-07-11T16:21:53;35.30;38.30
42905;DHT22;28550;51.228;4.528;2022-07-11T16:24:50;35.30;39.50
42905;DHT22;28550;51.228;4.528;2022-07-11T16:30:05;35.30;38.90
42905;DHT22;28550;51.228;4.528;2022-07-11T16:32:32;34.90;39.90
42905;DHT22;28550;51.228;4.528;2022-07-11T16:35:07;34.80;39.90
42905;DHT22;28550;51.228;4.528;2022-07-11T16:37:37;34.70;40.10
42905;DHT22;28550;51.228;4.528;2022-07-11T16:40:14;34.60;39.60
42905;DHT22;28550;51.228;4.528;2022-07-11T16:43:03;34.20;40.80
42905;DHT22;28550;51.228;4.528;2022-07-11T16:45:59;34.10;41.10
42905;DHT22;28550;51.228;4.528;2022-07-11T16:48:29;33.70;41.40
42905;DHT22;28550;51.228;4.528;2022-07-11T16:51:00;33.40;42.90
42905;DHT22;28550;51.228;4.528;2022-07-11T16:56:25;32.80;44.20
42905;DHT22;28550;51.228;4.528;2022-07-11T16:58:55;33.00;44.10
42905;DHT22;28550;51.228;4.528;2022-07-11T17:01:23;33.10;43.50
42905;DHT22;28550;51.228;4.528;2022-07-11T17:03:59;33.00;44.20
42905;DHT22;28550;51.228;4.528;2022-07-11T17:06:43;32.60;44.40
42905;DHT22;28550;51.228;4.528;2022-07-11T17:09:19;32.60;44.90
42905;DHT22;28550;51.228;4.528;2022-07-11T17:11:46;32.60;44.80
42905;DHT22;28550;51.228;4.528;2022-07-11T17:14:15;32.50;44.90
42905;DHT22;28550;51.228;4.528;2022-07-11T17:17:00;31.90;45.60
42905;DHT22;28550;51.228;4.528;2022-07-11T17:19:27;30.90;47.40
42905;DHT22;28550;51.228;4.528;2022-07-11T17:22:11;30.60;48.80
42905;DHT22;28550;51.228;4.528;2022-07-11T17:24:40;30.40;48.70
42905;DHT22;28550;51.228;4.528;2022-07-11T17:27:06;30.10;49.10
42905;DHT22;28550;51.228;4.528;2022-07-11T17:29:33;30.00;49.10
42905;DHT22;28550;51.228;4.528;2022-07-11T17:31:58;29.70;49.50
42905;DHT22;28550;51.228;4.528;2022-07-11T17:34:24;29.60;49.60
42905;DHT22;28550;51.228;4.528;2022-07-11T17:36:51;29.50;49.30
42905;DHT22;28550;51.228;4.528;2022-07-11T17:39:20;29.50;49.90
42905;DHT22;28550;51.228;4.528;2022-07-11T17:41:47;29.30;51.00
42905;DHT22;28550;51.228;4.528;2022-07-11T17:44:20;29.30;51.30
42905;DHT22;28550;51.228;4.528;2022-07-11T17:46:52;29.30;51.30
42905;DHT22;28550;51.228;4.528;2022-07-11T17:51:47;29.50;51.50
42905;DHT22;28550;51.228;4.528;2022-07-11T17:54:12;29.80;50.80
42905;DHT22;28550;51.228;4.528;2022-07-11T17:56:42;29.90;50.80
42905;DHT22;28550;51.228;4.528;2022-07-11T17:59:09;29.90;50.90
42905;DHT22;28550;51.228;4.528;2022-07-11T18:01:42;30.00;50.50
42905;DHT22;28550;51.228;4.528;2022-07-11T18:04:09;30.00;50.40